Aérodrome :
LOGIN :

S'inscrire | Disclaimer

   EN    FR    IT 

 










Légende :    VFR   VFR Marginal   IFR   IFR Intensif   IFR Très Intensif
Visi : 
Plafond : 
>= 8 km
>= 3000ft
5 à 8 km
1000 à 3000 ft
1500m à 5 km
500 à 1000 ft
800 à 1500m
200 à 500 ft
< 800m
< 200 ft
Symboles :   Orages  Brouillard  Fortes neiges  Fortes précipitations  Vent > 20 kt
SIGMETs :   Divers  Orages  Givrage  Turbulence  Onde Orograph.  Cendres Volcan.







- Altitude de l'aérodrome : 1247 ft
- Code IATA : PRG


LKPR - Praha Ruzyne

DERNIER METAR :
  • 182000Z 35006KT CAVOK M02/M09 Q1021 NOSIG

METARs EXPIRÉS :
  • 181930Z 35007KT CAVOK M01/M08 Q1021 NOSIG
  • 181900Z 35007KT CAVOK M01/M07 Q1021 NOSIG
  • 181830Z 35008KT CAVOK M00/M06 Q1022 NOSIG
  • 181800Z 35009KT CAVOK 00/M08 Q1022 NOSIG
  • 181730Z 36008KT CAVOK 01/M07 Q1022 NOSIG

TAF TAF LKPR
Valide du 18 à 18h jusqu'au 20 à 00h UTC


181700Z 1818/2000 36008KT CAVOK
BECMG 1821/1823 7000 BKN030
TEMPO 1900/1910 3000 -SN BR SCT005 BKN012
PROB30
TEMPO 1903/1908 1200 SN BR BKN005
BECMG 1910/1912 07010KT 9999 BKN017
Pas de NOTAMs connus pour ce terrain.
1 SIGMET publié pour la FIR Praha (LKAA) :
 
Turbulence forte
LKAA SIGMET 3 VALID 181830/182100 LKPW
LKAA PRAHA FIR SEV TURB FCST SE OF LINE N5021 E01834 - N4857 E01502 FL300/370 MOV SSW WKN=



MET'MAP, la Météo Aéronautique d'un coup d'oeil ! - Copyright ORBIFLY Décembre 2007 - Disclaimer

ORBIFLY MET'MAP TEAM :

Programmation & Développement : Alexandra Zaïnal
Conception & Développement : Baudouin d'Aumeries
Co-Programmation & Développement : Marc-Olivier Méhu
Soutien technique & logistique : Manuel Goepfert

Contact : metmap@orbifly.com




SOURCES & CREDITS :

   NOAA